Time;durP1;ratioP1;P1;durP2;ratioP2;P2;SDS_P1;SDS_P2;PMS_P1;PMS_P2;Temp;Humidity;BMP_temperature;BMP_pressure;BME280_temperature;BME280_humidity;BME280_pressure;Samples;Min_cycle;Max_cycle;Signal;HPM_P1;HPM_P2
2021/01/21 00:00:01;;;;;;;8.75;4.30;;;;;;;;;;5031799;28;20071;-80
2021/01/21 00:02:28;;;;;;;10.93;4.30;;;;;;;;;;5033175;28;20063;-75
2021/01/21 00:04:54;;;;;;;7.18;3.80;;;;;;;;;;5033430;28;20021;-71
2021/01/21 00:07:20;;;;;;;7.43;3.97;;;;;;;;;;5052556;28;20078;-72
2021/01/21 00:09:46;;;;;;;8.23;4.00;;;;;;;;;;5052744;28;20025;-72
2021/01/21 00:12:12;;;;;;;7.68;4.10;;;;;;;;;;5052183;28;20108;-74
2021/01/21 00:14:38;;;;;;;7.80;3.92;;;;;;;;;;5050890;28;20023;-72
2021/01/21 00:17:04;;;;;;;8.73;4.10;;;;;;;;;;5052641;28;20146;-73
2021/01/21 00:19:30;;;;;;;10.38;3.90;;;;;;;;;;5051462;28;20119;-73
2021/01/21 00:21:56;;;;;;;8.20;4.32;;;;;;;;;;5051382;28;20032;-69
2021/01/21 00:24:22;;;;;;;8.95;3.95;;;;;;;;;;5051437;28;20039;-76
2021/01/21 00:26:48;;;;;;;7.28;3.72;;;;;;;;;;5052667;28;20017;-68
2021/01/21 00:29:14;;;;;;;7.45;3.90;;;;;;;;;;5052767;28;20028;-68
2021/01/21 00:31:40;;;;;;;6.13;3.30;;;;;;;;;;5051485;28;20025;-72
2021/01/21 00:34:06;;;;;;;8.77;3.72;;;;;;;;;;5052424;28;20029;-70
2021/01/21 00:36:33;;;;;;;8.85;4.07;;;;;;;;;;5052305;28;20021;-74
2021/01/21 00:38:59;;;;;;;6.63;3.53;;;;;;;;;;5052318;28;20017;-73
2021/01/21 00:41:25;;;;;;;8.88;3.78;;;;;;;;;;5052304;28;20022;-73
2021/01/21 00:43:51;;;;;;;10.00;4.10;;;;;;;;;;5051860;28;20029;-69
2021/01/21 00:46:17;;;;;;;7.53;3.95;;;;;;;;;;5050904;28;20044;-69
2021/01/21 00:48:45;;;;;;;10.30;3.85;;;;;;;;;;5051961;28;20024;-71
2021/01/21 00:51:11;;;;;;;7.53;4.00;;;;;;;;;;5051436;28;20364;-73
2021/01/21 00:53:37;;;;;;;7.00;3.35;;;;;;;;;;5051189;28;20096;-73
2021/01/21 00:56:04;;;;;;;9.45;3.90;;;;;;;;;;5050043;28;20021;-75
2021/01/21 00:58:30;;;;;;;6.50;3.55;;;;;;;;;;5051656;28;20036;-68
2021/01/21 01:00:56;;;;;;;6.65;3.75;;;;;;;;;;5052069;28;20036;-74
2021/01/21 01:03:22;;;;;;;5.82;3.08;;;;;;;;;;5051930;28;20044;-74
2021/01/21 01:05:48;;;;;;;7.03;3.78;;;;;;;;;;5051723;28;20100;-76
2021/01/21 01:08:14;;;;;;;6.65;3.50;;;;;;;;;;5050570;28;20551;-74
2021/01/21 01:10:40;;;;;;;6.68;3.40;;;;;;;;;;5051250;28;20080;-74
2021/01/21 01:13:06;;;;;;;6.55;3.45;;;;;;;;;;5051768;28;20036;-73
2021/01/21 01:15:33;;;;;;;21.38;3.58;;;;;;;;;;5051201;28;20025;-73
2021/01/21 01:17:59;;;;;;;8.27;3.65;;;;;;;;;;5051222;28;20096;-73
2021/01/21 01:20:25;;;;;;;9.40;3.72;;;;;;;;;;5051273;28;20021;-74
2021/01/21 01:22:52;;;;;;;8.40;3.40;;;;;;;;;;5051644;28;20025;-71
2021/01/21 01:25:19;;;;;;;6.53;3.40;;;;;;;;;;5051655;28;20033;-70
2021/01/21 01:27:45;;;;;;;7.93;3.67;;;;;;;;;;5049812;28;20361;-71
2021/01/21 01:30:12;;;;;;;8.75;3.25;;;;;;;;;;5051412;28;20059;-71
2021/01/21 01:32:38;;;;;;;6.82;3.60;;;;;;;;;;5051416;28;20029;-71
2021/01/21 01:35:04;;;;;;;11.13;3.65;;;;;;;;;;5050266;28;20021;-71
2021/01/21 01:37:30;;;;;;;8.02;3.50;;;;;;;;;;5049288;28;20024;-71
2021/01/21 01:39:56;;;;;;;10.00;3.20;;;;;;;;;;5050216;28;20017;-71
2021/01/21 01:42:22;;;;;;;6.30;3.22;;;;;;;;;;5049705;28;20021;-71
2021/01/21 01:44:49;;;;;;;6.70;3.50;;;;;;;;;;5051084;28;20041;-71
2021/01/21 01:47:19;;;;;;;6.65;3.05;;;;;;;;;;5051400;28;20115;-71
2021/01/21 01:49:45;;;;;;;7.72;3.10;;;;;;;;;;5051307;28;20029;-72
2021/01/21 01:52:11;;;;;;;12.02;3.65;;;;;;;;;;5050109;28;20033;-71
2021/01/21 01:54:40;;;;;;;6.95;3.30;;;;;;;;;;5051410;28;20028;-71
2021/01/21 01:57:07;;;;;;;6.47;2.92;;;;;;;;;;5050052;28;20464;-71
2021/01/21 01:59:37;;;;;;;6.13;3.00;;;;;;;;;;5050100;28;20112;-71
2021/01/21 02:02:03;;;;;;;5.47;3.13;;;;;;;;;;5050118;28;20037;-71
2021/01/21 02:04:29;;;;;;;6.88;2.95;;;;;;;;;;5051453;28;20465;-71
2021/01/21 02:06:55;;;;;;;5.90;3.00;;;;;;;;;;5051338;28;20524;-71
2021/01/21 02:09:22;;;;;;;7.53;3.20;;;;;;;;;;5051301;28;20480;-71
2021/01/21 02:12:07;;;;;;;6.50;2.90;;;;;;;;;;5051376;28;20065;-71
2021/01/21 02:14:52;;;;;;;5.15;2.30;;;;;;;;;;5049985;28;20031;-71
2021/01/21 02:17:23;;;;;;;5.95;3.25;;;;;;;;;;5049796;28;20380;-72
2021/01/21 02:20:08;;;;;;;8.93;2.90;;;;;;;;;;5051220;28;20018;-71
2021/01/21 02:22:37;;;;;;;6.85;3.00;;;;;;;;;;5049679;28;20260;-71
2021/01/21 02:25:22;;;;;;;5.60;2.60;;;;;;;;;;5050598;28;20024;-71
2021/01/21 02:27:48;;;;;;;10.95;3.20;;;;;;;;;;5049548;28;20413;-71
2021/01/21 02:30:21;;;;;;;11.43;3.28;;;;;;;;;;5049570;28;20056;-72
2021/01/21 02:32:46;;;;;;;;;;;;;;;;;;5051385;28;20040;-71
2021/01/21 02:35:17;;;;;;;7.82;3.20;;;;;;;;;;5051057;28;19905;-71
2021/01/21 02:37:54;;;;;;;6.72;2.78;;;;;;;;;;5049619;28;20025;-71
2021/01/21 02:40:20;;;;;;;6.13;3.10;;;;;;;;;;5051025;28;20021;-71
2021/01/21 02:42:47;;;;;;;7.22;3.00;;;;;;;;;;5050991;28;20483;-72
2021/01/21 02:45:14;;;;;;;6.97;2.95;;;;;;;;;;5050793;28;20048;-71
2021/01/21 02:47:40;;;;;;;6.45;2.97;;;;;;;;;;5050893;28;20372;-71
2021/01/21 02:50:07;;;;;;;6.18;2.60;;;;;;;;;;5050991;28;20491;-71
2021/01/21 02:52:37;;;;;;;7.07;3.50;;;;;;;;;;5049533;28;20029;-71
2021/01/21 02:55:15;;;;;;;6.85;3.22;;;;;;;;;;5053269;28;20022;-71
2021/01/21 02:57:45;;;;;;;13.68;2.92;;;;;;;;;;5053093;28;20108;-71
2021/01/21 03:00:11;;;;;;;5.15;2.90;;;;;;;;;;5054486;28;20018;-72
2021/01/21 03:02:41;;;;;;;8.45;2.80;;;;;;;;;;5054472;28;20133;-71
2021/01/21 03:05:08;;;;;;;6.25;2.80;;;;;;;;;;5054477;28;20028;-71
2021/01/21 03:07:36;;;;;;;5.57;2.67;;;;;;;;;;5054221;28;20056;-71
2021/01/21 03:10:03;;;;;;;7.88;2.80;;;;;;;;;;5053107;28;20579;-72
2021/01/21 03:12:29;;;;;;;6.75;2.70;;;;;;;;;;5054138;28;20553;-71
2021/01/21 03:14:56;;;;;;;5.32;3.05;;;;;;;;;;5054203;28;20071;-71
2021/01/21 03:17:23;;;;;;;6.68;3.03;;;;;;;;;;5054071;28;20476;-72
2021/01/21 03:19:49;;;;;;;6.53;3.03;;;;;;;;;;5052776;28;20071;-72
2021/01/21 03:22:15;;;;;;;6.00;3.13;;;;;;;;;;5052924;28;20040;-73
2021/01/21 03:24:42;;;;;;;6.65;2.75;;;;;;;;;;5054077;28;20028;-71
2021/01/21 03:27:08;;;;;;;7.15;2.85;;;;;;;;;;5053819;28;20029;-72
2021/01/21 03:29:34;;;;;;;5.25;2.65;;;;;;;;;;5053922;28;20112;-71
2021/01/21 03:32:00;;;;;;;6.70;2.88;;;;;;;;;;5053914;28;20032;-72
2021/01/21 03:34:26;;;;;;;5.93;2.78;;;;;;;;;;5052512;28;20048;-72
2021/01/21 03:36:52;;;;;;;5.18;2.50;;;;;;;;;;5053686;28;20025;-71
2021/01/21 03:39:18;;;;;;;7.38;2.60;;;;;;;;;;5053733;28;20047;-72
2021/01/21 03:41:44;;;;;;;6.10;2.67;;;;;;;;;;5053687;28;20032;-72
2021/01/21 03:44:10;;;;;;;6.28;2.22;;;;;;;;;;5053400;28;20025;-72
2021/01/21 03:46:36;;;;;;;6.30;2.60;;;;;;;;;;5052178;28;20028;-71
2021/01/21 03:49:02;;;;;;;4.63;2.45;;;;;;;;;;5052178;28;20187;-72
2021/01/21 03:51:28;;;;;;;4.85;2.53;;;;;;;;;;5053310;28;20021;-71
2021/01/21 03:53:54;;;;;;;5.63;2.67;;;;;;;;;;5053536;28;20056;-71
2021/01/21 03:56:20;;;;;;;5.78;2.28;;;;;;;;;;5052040;28;20021;-72
2021/01/21 03:58:46;;;;;;;8.02;2.50;;;;;;;;;;5053251;28;20037;-71
2021/01/21 04:01:13;;;;;;;7.35;2.70;;;;;;;;;;5053217;28;20509;-72
2021/01/21 04:03:39;;;;;;;5.97;2.60;;;;;;;;;;5053211;28;20087;-71
2021/01/21 04:06:05;;;;;;;6.60;2.85;;;;;;;;;;5052888;28;20024;-72
2021/01/21 04:08:31;;;;;;;5.57;2.53;;;;;;;;;;5053154;28;20063;-72
2021/01/21 04:10:57;;;;;;;5.88;2.33;;;;;;;;;;5053227;28;20024;-71
2021/01/21 04:13:23;;;;;;;7.93;2.88;;;;;;;;;;5051779;28;20040;-71
2021/01/21 04:15:50;;;;;;;6.38;2.53;;;;;;;;;;5052875;28;20624;-71
2021/01/21 04:18:16;;;;;;;5.32;2.70;;;;;;;;;;5053005;28;20028;-71
2021/01/21 04:20:42;;;;;;;4.90;2.50;;;;;;;;;;5051502;28;20021;-71
2021/01/21 04:23:08;;;;;;;6.50;3.03;;;;;;;;;;5052863;28;20428;-72
2021/01/21 04:25:34;;;;;;;5.60;2.63;;;;;;;;;;5052718;28;20017;-72
2021/01/21 04:28:01;;;;;;;5.10;2.50;;;;;;;;;;5051412;28;20384;-72
2021/01/21 04:30:27;;;;;;;4.93;2.47;;;;;;;;;;5051551;28;20021;-71
2021/01/21 04:32:53;;;;;;;6.05;2.65;;;;;;;;;;5052634;28;20037;-72
2021/01/21 04:35:19;;;;;;;7.32;2.67;;;;;;;;;;5052570;28;20044;-71
2021/01/21 04:37:45;;;;;;;7.97;2.50;;;;;;;;;;5051256;28;20040;-72
2021/01/21 04:40:11;;;;;;;7.55;2.83;;;;;;;;;;5052613;28;20067;-72
2021/01/21 04:42:37;;;;;;;6.18;2.72;;;;;;;;;;5052574;28;20438;-72
2021/01/21 04:45:05;;;;;;;4.88;2.33;;;;;;;;;;5052223;28;20543;-72
2021/01/21 04:47:31;;;;;;;4.93;2.45;;;;;;;;;;5052319;28;20043;-71
2021/01/21 04:49:58;;;;;;;5.68;2.60;;;;;;;;;;5051188;28;20013;-72
2021/01/21 04:52:25;;;;;;;6.07;2.75;;;;;;;;;;5052213;28;20033;-72
2021/01/21 04:54:53;;;;;;;5.55;2.45;;;;;;;;;;5052189;28;20028;-71
2021/01/21 04:57:48;;;;;;;6.53;2.92;;;;;;;;;;5050736;28;20036;-72
2021/01/21 05:00:15;;;;;;;4.90;2.38;;;;;;;;;;5047135;28;20041;-71
2021/01/21 05:02:42;;;;;;;4.15;2.38;;;;;;;;;;5052046;28;20476;-71
2021/01/21 05:05:08;;;;;;;5.50;2.67;;;;;;;;;;5050958;28;20438;-72
2021/01/21 05:07:35;;;;;;;5.95;2.85;;;;;;;;;;5050812;28;20383;-73
2021/01/21 05:10:01;;;;;;;5.03;2.53;;;;;;;;;;5051786;28;20084;-72
2021/01/21 05:12:27;;;;;;;5.13;2.35;;;;;;;;;;5051840;28;20033;-72
2021/01/21 05:14:53;;;;;;;5.55;2.42;;;;;;;;;;5051809;28;20021;-72
2021/01/21 05:17:19;;;;;;;6.70;2.67;;;;;;;;;;5050830;28;20025;-72
2021/01/21 05:19:46;;;;;;;7.45;2.95;;;;;;;;;;5051329;28;20048;-71
2021/01/21 05:22:14;;;;;;;7.07;2.70;;;;;;;;;;5050001;28;20028;-71
2021/01/21 05:24:40;;;;;;;6.82;2.65;;;;;;;;;;5051711;28;20021;-71
2021/01/21 05:27:07;;;;;;;5.82;2.65;;;;;;;;;;5051625;28;20025;-73
2021/01/21 05:29:33;;;;;;;7.93;2.75;;;;;;;;;;5051753;28;20021;-72
2021/01/21 05:31:59;;;;;;;4.65;2.38;;;;;;;;;;5051691;28;20055;-72
2021/01/21 05:34:26;;;;;;;5.53;2.50;;;;;;;;;;5051595;28;20025;-72
2021/01/21 05:36:52;;;;;;;4.47;2.25;;;;;;;;;;5051665;28;20036;-72
2021/01/21 05:39:18;;;;;;;7.32;2.70;;;;;;;;;;5051328;28;20071;-72
2021/01/21 05:41:44;;;;;;;5.82;2.72;;;;;;;;;;5051407;28;20023;-72
2021/01/21 05:44:10;;;;;;;7.18;2.58;;;;;;;;;;5050048;28;20029;-72
2021/01/21 05:46:36;;;;;;;5.13;2.33;;;;;;;;;;5051420;28;20029;-72
2021/01/21 05:49:05;;;;;;;5.10;2.60;;;;;;;;;;5051492;28;20025;-71
2021/01/21 05:51:31;;;;;;;5.82;2.90;;;;;;;;;;5051392;28;20029;-72
2021/01/21 05:53:57;;;;;;;5.25;2.65;;;;;;;;;;5051480;28;20480;-72
2021/01/21 05:56:26;;;;;;;5.65;2.50;;;;;;;;;;5050094;28;20028;-72
2021/01/21 05:58:55;;;;;;;5.45;2.75;;;;;;;;;;5051274;28;20031;-72
2021/01/21 06:01:21;;;;;;;5.88;2.72;;;;;;;;;;5051130;28;20107;-72
2021/01/21 06:03:48;;;;;;;6.65;2.70;;;;;;;;;;5049904;28;20079;-72
2021/01/21 06:06:15;;;;;;;5.32;2.80;;;;;;;;;;5049861;28;20025;-72
2021/01/21 06:08:41;;;;;;;5.10;2.60;;;;;;;;;;5049969;28;20025;-72
2021/01/21 06:11:08;;;;;;;6.50;2.65;;;;;;;;;;5049936;28;20017;-72
2021/01/21 06:13:35;;;;;;;5.10;2.70;;;;;;;;;;5049967;28;20052;-72
2021/01/21 06:16:02;;;;;;;8.82;3.28;;;;;;;;;;5049876;28;20021;-71
2021/01/21 06:18:28;;;;;;;5.40;2.50;;;;;;;;;;5051105;28;20036;-72
2021/01/21 06:20:54;;;;;;;6.55;2.55;;;;;;;;;;5051113;28;20032;-71
2021/01/21 06:23:21;;;;;;;6.78;2.90;;;;;;;;;;5051058;28;20021;-72
2021/01/21 06:25:47;;;;;;;8.82;2.67;;;;;;;;;;5049658;28;20043;-72
2021/01/21 06:28:13;;;;;;;8.57;2.70;;;;;;;;;;5052343;28;20017;-72
2021/01/21 06:30:40;;;;;;;6.43;2.80;;;;;;;;;;5055083;28;20033;-72
2021/01/21 06:33:07;;;;;;;4.85;2.50;;;;;;;;;;5054933;28;20056;-72
2021/01/21 06:35:39;;;;;;;6.32;3.03;;;;;;;;;;5053391;28;20032;-72
2021/01/21 06:38:16;;;;;;;5.85;2.80;;;;;;;;;;5053594;28;20480;-72
2021/01/21 06:40:49;;;;;;;5.63;2.40;;;;;;;;;;5054796;28;20025;-71
2021/01/21 06:43:17;;;;;;;6.22;2.95;;;;;;;;;;5053412;28;20025;-72
2021/01/21 06:45:44;;;;;;;8.55;2.88;;;;;;;;;;5054433;28;20041;-72
2021/01/21 06:48:10;;;;;;;8.25;2.78;;;;;;;;;;5054780;28;20410;-72
2021/01/21 06:50:38;;;;;;;4.80;2.42;;;;;;;;;;5054578;28;20100;-72
2021/01/21 06:53:05;;;;;;;5.97;2.95;;;;;;;;;;5053212;28;20115;-72
2021/01/21 06:55:35;;;;;;;5.15;2.90;;;;;;;;;;5054450;28;20498;-72
2021/01/21 06:58:01;;;;;;;5.50;2.47;;;;;;;;;;5049258;28;20033;-71
2021/01/21 07:00:40;;;;;;;7.45;2.63;;;;;;;;;;5054168;28;20016;-72
2021/01/21 07:03:06;;;;;;;6.93;2.35;;;;;;;;;;5054197;28;20468;-71
2021/01/21 07:05:32;;;;;;;7.43;2.75;;;;;;;;;;5054136;28;20391;-71
2021/01/21 07:07:59;;;;;;;7.25;2.58;;;;;;;;;;5052987;28;20017;-71
2021/01/21 07:10:37;;;;;;;6.22;2.42;;;;;;;;;;5054215;28;20052;-71
2021/01/21 07:13:14;;;;;;;7.10;2.67;;;;;;;;;;5052725;28;20091;-72
2021/01/21 07:15:43;;;;;;;6.38;2.58;;;;;;;;;;5052919;28;20025;-71
2021/01/21 07:18:14;;;;;;;5.35;2.70;;;;;;;;;;5054055;28;20112;-71
2021/01/21 07:20:58;;;;;;;6.53;2.90;;;;;;;;;;5054049;28;20625;-72
2021/01/21 07:23:31;;;;;;;5.63;2.88;;;;;;;;;;5053829;28;20533;-72
2021/01/21 07:26:15;;;;;;;5.28;2.33;;;;;;;;;;5053897;28;20024;-72
2021/01/21 07:29:11;;;;;;;5.28;2.80;;;;;;;;;;5053764;28;20071;-72
2021/01/21 07:31:52;;;;;;;34.78;5.07;;;;;;;;;;5049040;28;20116;-72
2021/01/21 07:34:28;;;;;;;6.00;2.58;;;;;;;;;;5053773;28;20017;-71
2021/01/21 07:37:14;;;;;;;8.85;2.63;;;;;;;;;;5052342;28;20028;-72
2021/01/21 07:39:52;;;;;;;5.80;2.05;;;;;;;;;;5048947;28;20017;-75
2021/01/21 07:42:18;;;;;;;5.95;2.67;;;;;;;;;;5042306;28;20491;-71
2021/01/21 07:45:01;;;;;;;7.50;2.95;;;;;;;;;;5052869;28;20123;-69
2021/01/21 07:47:27;;;;;;;15.15;2.85;;;;;;;;;;5034525;28;20022;-68
2021/01/21 07:50:13;;;;;;;7.70;2.70;;;;;;;;;;5033140;28;20021;-69
2021/01/21 07:52:39;;;;;;;9.45;2.85;;;;;;;;;;5032834;28;20481;-73
2021/01/21 07:55:06;;;;;;;12.52;2.95;;;;;;;;;;5032823;28;20504;-74
2021/01/21 07:57:33;;;;;;;7.82;2.70;;;;;;;;;;5033844;28;20108;-71
2021/01/21 08:00:17;;;;;;;6.18;2.75;;;;;;;;;;5051731;28;20489;-75
2021/01/21 08:02:48;;;;;;;6.68;2.65;;;;;;;;;;5052768;28;20045;-70
2021/01/21 08:05:14;;;;;;;6.80;2.58;;;;;;;;;;5051014;28;20103;-74
2021/01/21 08:07:55;;;;;;;6.45;2.90;;;;;;;;;;5051092;28;20468;-74
2021/01/21 08:10:21;;;;;;;6.03;2.70;;;;;;;;;;5052759;28;20032;-76
2021/01/21 08:12:58;;;;;;;5.65;2.60;;;;;;;;;;5052514;28;20040;-76
2021/01/21 08:15:25;;;;;;;6.28;2.88;;;;;;;;;;5052653;28;20029;-76
2021/01/21 08:17:52;;;;;;;6.40;2.80;;;;;;;;;;5052744;28;20606;-77
2021/01/21 08:20:19;;;;;;;8.10;2.78;;;;;;;;;;5051412;28;20044;-77
2021/01/21 08:22:55;;;;;;;9.65;2.92;;;;;;;;;;5051272;28;20502;-76
2021/01/21 08:25:23;;;;;;;8.20;2.75;;;;;;;;;;5050899;28;20032;-75
2021/01/21 08:27:50;;;;;;;6.82;2.50;;;;;;;;;;5052362;28;20109;-74
2021/01/21 08:30:34;;;;;;;6.90;2.60;;;;;;;;;;5052063;28;20149;-75
2021/01/21 08:33:17;;;;;;;6.30;2.65;;;;;;;;;;5052325;28;20028;-77
2021/01/21 08:35:52;;;;;;;7.47;3.78;;;;;;;;;;5052131;28;20091;-77
2021/01/21 08:38:19;;;;;;;8.23;2.85;;;;;;;;;;5051153;28;20384;-78
2021/01/21 08:40:46;;;;;;;7.97;2.95;;;;;;;;;;5051135;28;20499;-78
2021/01/21 08:43:12;;;;;;;5.50;2.30;;;;;;;;;;5050714;28;20036;-76
2021/01/21 08:45:39;;;;;;;6.30;2.95;;;;;;;;;;5051957;28;20051;-76
2021/01/21 08:48:05;;;;;;;10.68;2.72;;;;;;;;;;5050782;28;20025;-75
2021/01/21 08:50:36;;;;;;;6.68;2.63;;;;;;;;;;5051840;28;20017;-77
2021/01/21 08:53:02;;;;;;;6.60;2.83;;;;;;;;;;5049344;28;20472;-77
2021/01/21 08:55:35;;;;;;;10.95;3.53;;;;;;;;;;5050300;28;20028;-77
2021/01/21 08:58:02;;;;;;;5.43;2.63;;;;;;;;;;5051557;28;20391;-77
2021/01/21 09:00:29;;;;;;;6.45;2.72;;;;;;;;;;5051808;28;20013;-76
2021/01/21 09:02:55;;;;;;;5.22;2.63;;;;;;;;;;5050464;28;20033;-77
2021/01/21 09:05:21;;;;;;;6.10;2.78;;;;;;;;;;5051475;28;20574;-78
2021/01/21 09:07:48;;;;;;;10.40;2.70;;;;;;;;;;5051738;28;20096;-77
2021/01/21 09:10:15;;;;;;;9.27;2.80;;;;;;;;;;5051630;28;20021;-75
2021/01/21 09:12:41;;;;;;;9.52;3.20;;;;;;;;;;5050256;28;20559;-75
2021/01/21 09:15:12;;;;;;;6.03;2.88;;;;;;;;;;5050428;28;20061;-77
2021/01/21 09:17:38;;;;;;;5.57;2.83;;;;;;;;;;5051596;28;20028;-77
2021/01/21 09:20:18;;;;;;;7.25;2.90;;;;;;;;;;5050552;28;20471;-76
2021/01/21 09:22:45;;;;;;;6.97;2.83;;;;;;;;;;5050166;28;20423;-76
2021/01/21 09:25:11;;;;;;;9.13;2.92;;;;;;;;;;5051100;28;20025;-78
2021/01/21 09:27:37;;;;;;;11.02;2.83;;;;;;;;;;5049888;28;20459;-70
2021/01/21 09:30:13;;;;;;;7.30;2.75;;;;;;;;;;5051206;28;20077;-72
2021/01/21 09:32:43;;;;;;;4.72;2.40;;;;;;;;;;5049766;28;20035;-73
2021/01/21 09:35:13;;;;;;;10.80;3.10;;;;;;;;;;5041126;28;20036;-73
2021/01/21 09:37:44;;;;;;;7.88;2.90;;;;;;;;;;5030102;28;20113;-74
2021/01/21 09:40:12;;;;;;;5.50;2.72;;;;;;;;;;5031546;28;20049;-75
2021/01/21 09:42:38;;;;;;;4.93;2.65;;;;;;;;;;5031328;28;20028;-77
2021/01/21 09:45:05;;;;;;;7.28;2.67;;;;;;;;;;5030003;28;20099;-78
2021/01/21 09:47:31;;;;;;;6.18;2.70;;;;;;;;;;5031368;28;20105;-76
2021/01/21 09:49:57;;;;;;;9.07;2.90;;;;;;;;;;5031046;28;20021;-72
2021/01/21 09:52:23;;;;;;;5.72;2.50;;;;;;;;;;5030903;28;20064;-72
2021/01/21 09:54:49;;;;;;;5.53;2.80;;;;;;;;;;5031356;28;20087;-75
2021/01/21 09:57:15;;;;;;;5.45;2.90;;;;;;;;;;5029801;28;20021;-77
2021/01/21 09:59:41;;;;;;;9.40;2.65;;;;;;;;;;5031111;28;20024;-75
2021/01/21 10:02:08;;;;;;;6.10;2.88;;;;;;;;;;5031158;28;20147;-74
2021/01/21 10:04:40;;;;;;;10.38;3.08;;;;;;;;;;5034648;28;20017;-74
2021/01/21 10:07:06;;;;;;;5.50;2.88;;;;;;;;;;5033704;28;20503;-72
2021/01/21 10:09:32;;;;;;;5.80;2.80;;;;;;;;;;5034839;28;20080;-77
2021/01/21 10:11:59;;;;;;;5.38;3.00;;;;;;;;;;5034730;28;20056;-75
2021/01/21 10:14:25;;;;;;;6.53;2.65;;;;;;;;;;5035090;28;20028;-76
2021/01/21 10:16:51;;;;;;;6.55;2.80;;;;;;;;;;5033975;28;20044;-75
2021/01/21 10:19:17;;;;;;;7.05;2.70;;;;;;;;;;5033656;28;20021;-77
2021/01/21 10:21:43;;;;;;;5.03;2.50;;;;;;;;;;5033596;28;20029;-76
2021/01/21 10:24:09;;;;;;;6.38;2.95;;;;;;;;;;5032986;28;20026;-76
2021/01/21 10:26:35;;;;;;;5.38;2.58;;;;;;;;;;5033452;28;20033;-73
2021/01/21 10:29:01;;;;;;;5.30;2.50;;;;;;;;;;5034536;28;20022;-75
2021/01/21 10:31:27;;;;;;;5.13;2.47;;;;;;;;;;5034906;28;20021;-75
2021/01/21 10:33:54;;;;;;;5.75;2.60;;;;;;;;;;5033376;28;20033;-76
2021/01/21 10:36:20;;;;;;;8.48;3.20;;;;;;;;;;5054580;28;20453;-71
2021/01/21 10:38:46;;;;;;;6.72;2.55;;;;;;;;;;5053211;28;20029;-77
2021/01/21 10:41:12;;;;;;;9.00;2.70;;;;;;;;;;5054310;28;20104;-74
2021/01/21 10:43:39;;;;;;;5.88;2.50;;;;;;;;;;5054296;28;20029;-73
2021/01/21 10:46:05;;;;;;;8.77;2.72;;;;;;;;;;5054245;28;20052;-73
2021/01/21 10:48:31;;;;;;;4.85;2.50;;;;;;;;;;5054336;28;20029;-77
2021/01/21 10:50:58;;;;;;;6.10;2.33;;;;;;;;;;5054418;28;20029;-74
2021/01/21 10:53:24;;;;;;;5.35;2.05;;;;;;;;;;5054332;28;20048;-73
2021/01/21 10:55:50;;;;;;;8.02;2.65;;;;;;;;;;5054432;28;20535;-74
2021/01/21 10:58:16;;;;;;;5.78;2.15;;;;;;;;;;5052822;28;20039;-74
2021/01/21 11:00:44;;;;;;;5.30;2.25;;;;;;;;;;5052979;28;20027;-76
2021/01/21 11:03:10;;;;;;;5.78;2.30;;;;;;;;;;5052757;28;20021;-73
2021/01/21 11:05:36;;;;;;;6.03;2.55;;;;;;;;;;5053919;28;20017;-72
2021/01/21 11:08:02;;;;;;;8.05;2.10;;;;;;;;;;5052846;28;20025;-72
2021/01/21 11:10:29;;;;;;;5.90;2.28;;;;;;;;;;5054273;28;20020;-71
2021/01/21 11:12:55;;;;;;;5.82;2.60;;;;;;;;;;5053991;28;20037;-72
2021/01/21 11:15:21;;;;;;;3.00;1.45;;;;;;;;;;5051345;28;20053;-76
2021/01/21 11:17:49;;;;;;;5.90;1.83;;;;;;;;;;5053854;28;20024;-75
2021/01/21 11:20:15;;;;;;;6.13;1.80;;;;;;;;;;5052538;28;20086;-75
2021/01/21 11:22:41;;;;;;;3.65;1.50;;;;;;;;;;5054007;28;20029;-75
2021/01/21 11:25:09;;;;;;;4.63;2.10;;;;;;;;;;5052416;28;20025;-76
2021/01/21 11:27:35;;;;;;;9.40;1.80;;;;;;;;;;5052002;28;20033;-74
2021/01/21 11:30:05;;;;;;;6.95;1.88;;;;;;;;;;5053799;28;20384;-80
2021/01/21 11:32:31;;;;;;;6.40;1.60;;;;;;;;;;5052505;28;20037;-76
2021/01/21 11:34:57;;;;;;;7.10;1.73;;;;;;;;;;5050892;28;20104;-75
2021/01/21 11:37:23;;;;;;;11.05;1.70;;;;;;;;;;5053365;28;20078;-77
2021/01/21 11:39:49;;;;;;;6.75;1.55;;;;;;;;;;5053242;28;20014;-74
2021/01/21 11:42:15;;;;;;;9.63;1.80;;;;;;;;;;5053497;28;20049;-74
2021/01/21 11:44:42;;;;;;;4.25;1.48;;;;;;;;;;5053057;28;20064;-74
2021/01/21 11:47:08;;;;;;;6.60;1.75;;;;;;;;;;5053145;28;20028;-73
2021/01/21 11:49:34;;;;;;;9.18;1.85;;;;;;;;;;5053156;28;20021;-77
2021/01/21 11:52:00;;;;;;;4.80;1.50;;;;;;;;;;5053098;28;20032;-73
2021/01/21 11:54:26;;;;;;;4.22;1.40;;;;;;;;;;5053297;28;20686;-72
2021/01/21 11:56:52;;;;;;;4.90;1.60;;;;;;;;;;5053186;28;20033;-79
2021/01/21 11:59:19;;;;;;;3.90;1.38;;;;;;;;;;5053050;28;20029;-78
2021/01/21 12:01:45;;;;;;;3.47;1.33;;;;;;;;;;5053081;28;20021;-76
2021/01/21 12:04:11;;;;;;;4.20;1.25;;;;;;;;;;5053174;28;20440;-76
2021/01/21 12:06:37;;;;;;;13.07;2.65;;;;;;;;;;5052754;28;20075;-77
2021/01/21 12:09:04;;;;;;;4.78;1.45;;;;;;;;;;5052847;28;20052;-77
2021/01/21 12:11:33;;;;;;;3.83;1.50;;;;;;;;;;5052722;28;20017;-78
2021/01/21 12:14:00;;;;;;;4.95;1.50;;;;;;;;;;5051420;28;20488;-79
2021/01/21 12:16:26;;;;;;;5.80;1.48;;;;;;;;;;5052660;28;20028;-74
2021/01/21 12:18:54;;;;;;;3.60;1.33;;;;;;;;;;5053272;28;20033;-73
2021/01/21 12:21:20;;;;;;;2.67;1.10;;;;;;;;;;5052790;28;20024;-73
2021/01/21 12:23:46;;;;;;;4.05;1.30;;;;;;;;;;5052744;28;20028;-78
2021/01/21 12:26:12;;;;;;;28.90;3.53;;;;;;;;;;5052407;28;20032;-83
2021/01/21 12:28:39;;;;;;;39.65;4.05;;;;;;;;;;5052820;28;20020;-78
2021/01/21 12:31:05;;;;;;;37.20;3.85;;;;;;;;;;5052607;28;20035;-77
2021/01/21 12:33:31;;;;;;;27.75;3.03;;;;;;;;;;5052427;28;20108;-80
2021/01/21 12:35:57;;;;;;;23.02;2.70;;;;;;;;;;5035609;28;20026;-76
2021/01/21 12:38:23;;;;;;;24.40;2.88;;;;;;;;;;5031308;28;20090;-81
2021/01/21 12:40:50;;;;;;;16.00;2.40;;;;;;;;;;5036022;28;20025;-76
2021/01/21 12:43:16;;;;;;;21.63;2.75;;;;;;;;;;5050481;28;20033;-78
2021/01/21 12:45:44;;;;;;;18.38;2.70;;;;;;;;;;5051963;28;20100;-75
2021/01/21 12:48:11;;;;;;;15.23;2.95;;;;;;;;;;5052229;28;20013;-80
2021/01/21 12:50:37;;;;;;;23.48;3.05;;;;;;;;;;5050735;28;20029;-73
2021/01/21 12:53:04;;;;;;;10.85;1.75;;;;;;;;;;5051801;28;20069;-78
2021/01/21 12:55:30;;;;;;;11.50;2.22;;;;;;;;;;5051587;28;20118;-75
2021/01/21 12:57:56;;;;;;;13.85;2.40;;;;;;;;;;5051643;28;20031;-80
2021/01/21 13:00:23;;;;;;;13.88;2.30;;;;;;;;;;5051964;28;20043;-79
2021/01/21 13:02:49;;;;;;;9.77;2.53;;;;;;;;;;5050435;28;20029;-78
2021/01/21 13:05:15;;;;;;;13.25;1.80;;;;;;;;;;5051744;28;20017;-74
2021/01/21 13:07:42;;;;;;;14.73;2.60;;;;;;;;;;5051534;28;20025;-73
2021/01/21 13:10:08;;;;;;;15.00;2.78;;;;;;;;;;5051419;28;20476;-73
2021/01/21 13:12:34;;;;;;;14.35;2.97;;;;;;;;;;5051273;28;20052;-73
2021/01/21 13:15:00;;;;;;;8.05;1.80;;;;;;;;;;5051142;28;20079;-74
2021/01/21 13:17:26;;;;;;;13.70;1.98;;;;;;;;;;5050971;28;20385;-77
2021/01/21 13:19:53;;;;;;;16.15;2.78;;;;;;;;;;5050110;28;20032;-79
2021/01/21 13:22:19;;;;;;;18.08;3.90;;;;;;;;;;5051004;28;20035;-76
2021/01/21 13:24:45;;;;;;;14.35;3.42;;;;;;;;;;5052311;28;20427;-76
2021/01/21 13:27:11;;;;;;;9.25;2.80;;;;;;;;;;5051526;28;20485;-76
2021/01/21 13:29:38;;;;;;;12.55;3.30;;;;;;;;;;5051459;28;20491;-79
2021/01/21 13:32:04;;;;;;;8.18;3.10;;;;;;;;;;5051791;28;20028;-75
2021/01/21 13:34:30;;;;;;;12.93;3.20;;;;;;;;;;5051603;28;20025;-75
2021/01/21 13:36:56;;;;;;;13.93;3.50;;;;;;;;;;5051366;28;20013;-72
2021/01/21 13:39:22;;;;;;;7.93;2.70;;;;;;;;;;5050871;28;20071;-71
2021/01/21 13:41:48;;;;;;;8.57;2.90;;;;;;;;;;5051365;28;20099;-73
2021/01/21 13:44:14;;;;;;;12.13;2.78;;;;;;;;;;5051112;28;20460;-71
2021/01/21 13:46:40;;;;;;;9.60;2.65;;;;;;;;;;5051018;28;20029;-73
2021/01/21 13:49:07;;;;;;;9.30;3.03;;;;;;;;;;5051137;28;20024;-76
2021/01/21 13:51:33;;;;;;;7.70;2.80;;;;;;;;;;5049511;28;20397;-74
2021/01/21 13:54:00;;;;;;;12.88;2.88;;;;;;;;;;5049700;28;20033;-74
2021/01/21 13:56:26;;;;;;;16.75;2.75;;;;;;;;;;5051000;28;20075;-80
2021/01/21 13:58:52;;;;;;;10.23;2.35;;;;;;;;;;5050188;28;20036;-73
2021/01/21 14:01:18;;;;;;;10.57;2.67;;;;;;;;;;5051461;28;20182;-75
2021/01/21 14:03:44;;;;;;;8.80;2.75;;;;;;;;;;5051204;28;20064;-74
2021/01/21 14:06:10;;;;;;;12.95;2.63;;;;;;;;;;5051038;28;20025;-74
2021/01/21 14:08:36;;;;;;;11.50;2.50;;;;;;;;;;5050990;28;20051;-75
2021/01/21 14:11:02;;;;;;;6.57;2.10;;;;;;;;;;5049767;28;20053;-75
2021/01/21 14:13:28;;;;;;;9.05;2.47;;;;;;;;;;5049478;28;20029;-76
2021/01/21 14:15:54;;;;;;;10.70;2.67;;;;;;;;;;5050720;28;20021;-81
2021/01/21 14:18:20;;;;;;;8.45;2.15;;;;;;;;;;5050652;28;20502;-73
2021/01/21 14:20:47;;;;;;;8.90;2.15;;;;;;;;;;5051624;28;20516;-74
2021/01/21 14:23:13;;;;;;;5.72;2.10;;;;;;;;;;5049505;28;20086;-75
2021/01/21 14:25:39;;;;;;;5.32;2.08;;;;;;;;;;5032560;28;20104;-76
2021/01/21 14:28:08;;;;;;;11.23;2.10;;;;;;;;;;5030780;28;20064;-77
2021/01/21 14:30:34;;;;;;;8.82;2.13;;;;;;;;;;5036052;28;20040;-76
2021/01/21 14:33:00;;;;;;;11.60;2.30;;;;;;;;;;5049866;28;20090;-79
2021/01/21 14:35:26;;;;;;;8.23;2.05;;;;;;;;;;5050469;28;20017;-81
2021/01/21 14:37:56;;;;;;;8.85;2.38;;;;;;;;;;5050505;28;20163;-74
2021/01/21 14:40:22;;;;;;;6.82;1.83;;;;;;;;;;5047988;28;20066;-77
2021/01/21 14:42:48;;;;;;;6.70;2.00;;;;;;;;;;5050149;28;20036;-78